sensor_id;sensor_type;location;lat;lon;timestamp;P1;durP1;ratioP1;P2;durP2;ratioP2
69878;SDS011;57161;43.136;24.706;2022-08-11T00:02:35;15.38;;;12.10;;
69878;SDS011;57161;43.136;24.706;2022-08-11T00:05:07;16.23;;;10.73;;
69878;SDS011;57161;43.136;24.706;2022-08-11T00:07:41;17.35;;;10.45;;
69878;SDS011;57161;43.136;24.706;2022-08-11T00:10:16;15.15;;;8.65;;
69878;SDS011;57161;43.136;24.706;2022-08-11T00:12:49;10.63;;;8.27;;
69878;SDS011;57161;43.136;24.706;2022-08-11T00:15:17;9.70;;;6.50;;
69878;SDS011;57161;43.136;24.706;2022-08-11T00:17:43;10.48;;;6.20;;
69878;SDS011;57161;43.136;24.706;2022-08-11T00:20:11;9.88;;;5.22;;
69878;SDS011;57161;43.136;24.706;2022-08-11T00:22:40;8.43;;;5.47;;
69878;SDS011;57161;43.136;24.706;2022-08-11T00:25:14;12.63;;;5.97;;
69878;SDS011;57161;43.136;24.706;2022-08-11T00:27:43;9.27;;;5.18;;
69878;SDS011;57161;43.136;24.706;2022-08-11T00:30:11;8.15;;;5.18;;
69878;SDS011;57161;43.136;24.706;2022-08-11T00:32:37;6.53;;;4.35;;
69878;SDS011;57161;43.136;24.706;2022-08-11T00:35:06;9.63;;;4.88;;
69878;SDS011;57161;43.136;24.706;2022-08-11T00:37:34;12.18;;;4.30;;
69878;SDS011;57161;43.136;24.706;2022-08-11T00:40:03;9.50;;;3.78;;
69878;SDS011;57161;43.136;24.706;2022-08-11T00:45:21;6.93;;;4.00;;
69878;SDS011;57161;43.136;24.706;2022-08-11T00:56:20;7.15;;;4.00;;
69878;SDS011;57161;43.136;24.706;2022-08-11T01:02:15;8.35;;;4.30;;
69878;SDS011;57161;43.136;24.706;2022-08-11T01:25:16;12.07;;;3.60;;
69878;SDS011;57161;43.136;24.706;2022-08-11T01:42:06;11.57;;;2.67;;
69878;SDS011;57161;43.136;24.706;2022-08-11T01:55:31;3.80;;;2.72;;
69878;SDS011;57161;43.136;24.706;2022-08-11T02:00:31;8.95;;;2.50;;
69878;SDS011;57161;43.136;24.706;2022-08-11T02:06:01;3.60;;;2.53;;
69878;SDS011;57161;43.136;24.706;2022-08-11T02:08:58;4.95;;;2.50;;
69878;SDS011;57161;43.136;24.706;2022-08-11T02:11:32;7.07;;;2.40;;
69878;SDS011;57161;43.136;24.706;2022-08-11T02:19:48;6.55;;;2.30;;
69878;SDS011;57161;43.136;24.706;2022-08-11T02:29:21;9.77;;;3.47;;
69878;SDS011;57161;43.136;24.706;2022-08-11T02:32:04;8.52;;;3.28;;
69878;SDS011;57161;43.136;24.706;2022-08-11T02:35:00;5.90;;;3.08;;
69878;SDS011;57161;43.136;24.706;2022-08-11T02:43:26;6.07;;;3.25;;
69878;SDS011;57161;43.136;24.706;2022-08-11T02:48:49;5.85;;;3.10;;
69878;SDS011;57161;43.136;24.706;2022-08-11T02:54:06;6.60;;;2.80;;
69878;SDS011;57161;43.136;24.706;2022-08-11T02:59:55;7.30;;;3.60;;
69878;SDS011;57161;43.136;24.706;2022-08-11T03:02:39;5.07;;;2.97;;
69878;SDS011;57161;43.136;24.706;2022-08-11T03:13:55;4.93;;;3.00;;
69878;SDS011;57161;43.136;24.706;2022-08-11T03:16:52;6.53;;;3.50;;
69878;SDS011;57161;43.136;24.706;2022-08-11T03:30:22;8.35;;;2.83;;
69878;SDS011;57161;43.136;24.706;2022-08-11T03:41:52;3.97;;;3.10;;
69878;SDS011;57161;43.136;24.706;2022-08-11T04:25:50;9.93;;;3.70;;
69878;SDS011;57161;43.136;24.706;2022-08-11T04:34:03;14.05;;;4.57;;
69878;SDS011;57161;43.136;24.706;2022-08-11T04:39:58;9.00;;;4.13;;
69878;SDS011;57161;43.136;24.706;2022-08-11T04:51:31;5.57;;;3.92;;
69878;SDS011;57161;43.136;24.706;2022-08-11T05:00:37;5.85;;;3.80;;
69878;SDS011;57161;43.136;24.706;2022-08-11T05:04:03;5.82;;;3.75;;
69878;SDS011;57161;43.136;24.706;2022-08-11T05:10:15;4.10;;;3.20;;
69878;SDS011;57161;43.136;24.706;2022-08-11T05:13:02;6.15;;;2.80;;
69878;SDS011;57161;43.136;24.706;2022-08-11T05:15:50;5.60;;;2.97;;
69878;SDS011;57161;43.136;24.706;2022-08-11T05:18:44;5.55;;;3.20;;
69878;SDS011;57161;43.136;24.706;2022-08-11T05:21:33;3.40;;;2.80;;
69878;SDS011;57161;43.136;24.706;2022-08-11T05:24:25;4.57;;;2.95;;
69878;SDS011;57161;43.136;24.706;2022-08-11T05:27:15;6.20;;;3.22;;
69878;SDS011;57161;43.136;24.706;2022-08-11T05:30:06;4.88;;;3.00;;
69878;SDS011;57161;43.136;24.706;2022-08-11T05:33:02;4.68;;;2.45;;
69878;SDS011;57161;43.136;24.706;2022-08-11T05:35:54;4.22;;;2.60;;
69878;SDS011;57161;43.136;24.706;2022-08-11T05:38:36;4.00;;;2.30;;
69878;SDS011;57161;43.136;24.706;2022-08-11T05:41:22;6.20;;;2.38;;
69878;SDS011;57161;43.136;24.706;2022-08-11T05:44:08;5.60;;;2.83;;
69878;SDS011;57161;43.136;24.706;2022-08-11T05:46:59;6.55;;;2.67;;
69878;SDS011;57161;43.136;24.706;2022-08-11T05:49:47;8.38;;;2.50;;
69878;SDS011;57161;43.136;24.706;2022-08-11T05:52:33;3.47;;;1.85;;
69878;SDS011;57161;43.136;24.706;2022-08-11T05:55:19;5.13;;;2.35;;
69878;SDS011;57161;43.136;24.706;2022-08-11T05:58:04;3.60;;;2.22;;
69878;SDS011;57161;43.136;24.706;2022-08-11T06:00:54;3.13;;;2.00;;
69878;SDS011;57161;43.136;24.706;2022-08-11T06:03:19;3.97;;;2.20;;
69878;SDS011;57161;43.136;24.706;2022-08-11T06:05:50;5.10;;;2.45;;
69878;SDS011;57161;43.136;24.706;2022-08-11T06:08:16;2.97;;;2.00;;
69878;SDS011;57161;43.136;24.706;2022-08-11T06:10:51;2.90;;;2.08;;
69878;SDS011;57161;43.136;24.706;2022-08-11T06:13:23;5.32;;;2.00;;
69878;SDS011;57161;43.136;24.706;2022-08-11T06:15:50;4.70;;;2.30;;
69878;SDS011;57161;43.136;24.706;2022-08-11T06:18:16;5.32;;;2.38;;
69878;SDS011;57161;43.136;24.706;2022-08-11T06:20:50;4.90;;;2.50;;
69878;SDS011;57161;43.136;24.706;2022-08-11T06:23:18;7.43;;;2.22;;
69878;SDS011;57161;43.136;24.706;2022-08-11T06:25:47;3.60;;;2.03;;
69878;SDS011;57161;43.136;24.706;2022-08-11T06:28:15;3.90;;;2.13;;
69878;SDS011;57161;43.136;24.706;2022-08-11T06:30:46;3.17;;;2.13;;
69878;SDS011;57161;43.136;24.706;2022-08-11T06:35:56;3.22;;;1.90;;
69878;SDS011;57161;43.136;24.706;2022-08-11T06:42:04;5.78;;;1.75;;
69878;SDS011;57161;43.136;24.706;2022-08-11T06:44:40;3.45;;;2.00;;
69878;SDS011;57161;43.136;24.706;2022-08-11T06:47:08;3.17;;;1.60;;
69878;SDS011;57161;43.136;24.706;2022-08-11T06:49:37;5.55;;;1.67;;
69878;SDS011;57161;43.136;24.706;2022-08-11T06:52:34;3.15;;;1.80;;
69878;SDS011;57161;43.136;24.706;2022-08-11T06:55:09;3.33;;;1.75;;
69878;SDS011;57161;43.136;24.706;2022-08-11T06:57:39;3.50;;;1.63;;
69878;SDS011;57161;43.136;24.706;2022-08-11T07:00:27;1.80;;;1.52;;
69878;SDS011;57161;43.136;24.706;2022-08-11T07:03:05;1.60;;;1.50;;
69878;SDS011;57161;43.136;24.706;2022-08-11T07:08:17;3.28;;;1.42;;
69878;SDS011;57161;43.136;24.706;2022-08-11T07:14:09;3.28;;;1.48;;
69878;SDS011;57161;43.136;24.706;2022-08-11T07:16:54;3.17;;;1.70;;
69878;SDS011;57161;43.136;24.706;2022-08-11T07:19:26;2.25;;;1.40;;
69878;SDS011;57161;43.136;24.706;2022-08-11T07:22:16;2.45;;;1.25;;
69878;SDS011;57161;43.136;24.706;2022-08-11T07:25:13;1.70;;;1.40;;
69878;SDS011;57161;43.136;24.706;2022-08-11T07:28:03;3.25;;;1.30;;
69878;SDS011;57161;43.136;24.706;2022-08-11T07:30:52;5.15;;;1.60;;
69878;SDS011;57161;43.136;24.706;2022-08-11T07:33:44;2.40;;;1.80;;
69878;SDS011;57161;43.136;24.706;2022-08-11T07:36:10;4.78;;;1.50;;
69878;SDS011;57161;43.136;24.706;2022-08-11T07:38:42;3.22;;;1.90;;
69878;SDS011;57161;43.136;24.706;2022-08-11T07:41:15;3.22;;;1.85;;
69878;SDS011;57161;43.136;24.706;2022-08-11T07:43:43;1.85;;;1.65;;
69878;SDS011;57161;43.136;24.706;2022-08-11T07:46:15;3.47;;;1.73;;
69878;SDS011;57161;43.136;24.706;2022-08-11T07:49:01;4.97;;;1.70;;
69878;SDS011;57161;43.136;24.706;2022-08-11T07:51:48;5.60;;;1.75;;
69878;SDS011;57161;43.136;24.706;2022-08-11T07:54:33;2.75;;;1.40;;
69878;SDS011;57161;43.136;24.706;2022-08-11T07:57:00;1.90;;;1.40;;
69878;SDS011;57161;43.136;24.706;2022-08-11T07:59:47;7.70;;;1.80;;
69878;SDS011;57161;43.136;24.706;2022-08-11T08:02:31;2.90;;;1.35;;
69878;SDS011;57161;43.136;24.706;2022-08-11T08:05:16;4.20;;;1.60;;
69878;SDS011;57161;43.136;24.706;2022-08-11T08:08:01;4.85;;;1.40;;
69878;SDS011;57161;43.136;24.706;2022-08-11T08:10:46;1.90;;;1.50;;
69878;SDS011;57161;43.136;24.706;2022-08-11T08:13:31;2.15;;;1.30;;
69878;SDS011;57161;43.136;24.706;2022-08-11T08:16:16;1.67;;;1.30;;
69878;SDS011;57161;43.136;24.706;2022-08-11T08:19:01;2.40;;;1.80;;
69878;SDS011;57161;43.136;24.706;2022-08-11T08:21:27;1.60;;;1.50;;
69878;SDS011;57161;43.136;24.706;2022-08-11T08:23:52;3.20;;;1.60;;
69878;SDS011;57161;43.136;24.706;2022-08-11T08:26:20;2.70;;;1.70;;
69878;SDS011;57161;43.136;24.706;2022-08-11T08:29:05;7.43;;;2.00;;
69878;SDS011;57161;43.136;24.706;2022-08-11T08:31:50;2.13;;;1.63;;
69878;SDS011;57161;43.136;24.706;2022-08-11T08:34:17;3.05;;;1.80;;
69878;SDS011;57161;43.136;24.706;2022-08-11T08:36:44;4.05;;;1.65;;
69878;SDS011;57161;43.136;24.706;2022-08-11T08:39:12;2.47;;;1.50;;
69878;SDS011;57161;43.136;24.706;2022-08-11T08:41:38;2.08;;;1.60;;
69878;SDS011;57161;43.136;24.706;2022-08-11T08:44:07;2.03;;;1.50;;
69878;SDS011;57161;43.136;24.706;2022-08-11T08:46:43;2.92;;;1.50;;
69878;SDS011;57161;43.136;24.706;2022-08-11T08:49:14;4.00;;;1.77;;
69878;SDS011;57161;43.136;24.706;2022-08-11T08:51:42;2.63;;;1.50;;
69878;SDS011;57161;43.136;24.706;2022-08-11T08:54:11;6.07;;;1.65;;
69878;SDS011;57161;43.136;24.706;2022-08-11T08:56:43;2.53;;;1.95;;
69878;SDS011;57161;43.136;24.706;2022-08-11T08:59:11;1.60;;;1.50;;
69878;SDS011;57161;43.136;24.706;2022-08-11T09:01:42;3.35;;;1.90;;
69878;SDS011;57161;43.136;24.706;2022-08-11T09:04:12;2.03;;;1.77;;
69878;SDS011;57161;43.136;24.706;2022-08-11T09:06:39;4.05;;;1.83;;
69878;SDS011;57161;43.136;24.706;2022-08-11T09:09:07;5.13;;;1.83;;
69878;SDS011;57161;43.136;24.706;2022-08-11T09:11:36;3.72;;;1.90;;
69878;SDS011;57161;43.136;24.706;2022-08-11T09:14:20;2.15;;;1.85;;
69878;SDS011;57161;43.136;24.706;2022-08-11T09:16:49;2.42;;;1.90;;
69878;SDS011;57161;43.136;24.706;2022-08-11T09:19:17;2.28;;;1.73;;
69878;SDS011;57161;43.136;24.706;2022-08-11T09:21:48;2.35;;;1.80;;
69878;SDS011;57161;43.136;24.706;2022-08-11T09:24:33;3.85;;;2.38;;
69878;SDS011;57161;43.136;24.706;2022-08-11T09:27:20;4.60;;;1.85;;
69878;SDS011;57161;43.136;24.706;2022-08-11T09:29:48;4.57;;;2.20;;
69878;SDS011;57161;43.136;24.706;2022-08-11T09:32:18;3.80;;;1.75;;
69878;SDS011;57161;43.136;24.706;2022-08-11T09:34:45;2.47;;;2.13;;
69878;SDS011;57161;43.136;24.706;2022-08-11T09:37:11;2.20;;;1.75;;
69878;SDS011;57161;43.136;24.706;2022-08-11T09:39:56;4.32;;;2.15;;
69878;SDS011;57161;43.136;24.706;2022-08-11T09:42:41;4.03;;;1.80;;
69878;SDS011;57161;43.136;24.706;2022-08-11T09:45:26;3.28;;;1.80;;
69878;SDS011;57161;43.136;24.706;2022-08-11T09:47:52;3.58;;;2.00;;
69878;SDS011;57161;43.136;24.706;2022-08-11T09:50:19;3.63;;;2.15;;
69878;SDS011;57161;43.136;24.706;2022-08-11T09:52:44;5.45;;;1.90;;
69878;SDS011;57161;43.136;24.706;2022-08-11T09:55:13;4.97;;;2.25;;
69878;SDS011;57161;43.136;24.706;2022-08-11T09:57:40;7.00;;;2.03;;
69878;SDS011;57161;43.136;24.706;2022-08-11T10:00:29;2.00;;;1.77;;
69878;SDS011;57161;43.136;24.706;2022-08-11T10:02:56;1.92;;;1.70;;
69878;SDS011;57161;43.136;24.706;2022-08-11T10:05:26;4.38;;;1.80;;
69878;SDS011;57161;43.136;24.706;2022-08-11T10:08:12;3.13;;;2.00;;
69878;SDS011;57161;43.136;24.706;2022-08-11T10:10:41;2.67;;;2.10;;
69878;SDS011;57161;43.136;24.706;2022-08-11T10:13:10;2.50;;;1.80;;
69878;SDS011;57161;43.136;24.706;2022-08-11T10:15:43;4.20;;;1.95;;
69878;SDS011;57161;43.136;24.706;2022-08-11T10:18:15;2.53;;;2.30;;
69878;SDS011;57161;43.136;24.706;2022-08-11T10:21:06;3.67;;;2.33;;
69878;SDS011;57161;43.136;24.706;2022-08-11T10:23:35;3.05;;;2.20;;
69878;SDS011;57161;43.136;24.706;2022-08-11T10:26:20;6.85;;;2.20;;
69878;SDS011;57161;43.136;24.706;2022-08-11T10:29:06;4.10;;;2.20;;
69878;SDS011;57161;43.136;24.706;2022-08-11T10:31:53;2.08;;;1.73;;
69878;SDS011;57161;43.136;24.706;2022-08-11T10:34:39;3.45;;;1.90;;
69878;SDS011;57161;43.136;24.706;2022-08-11T10:37:07;4.00;;;1.75;;
69878;SDS011;57161;43.136;24.706;2022-08-11T10:39:33;3.30;;;1.83;;
69878;SDS011;57161;43.136;24.706;2022-08-11T10:42:01;1.98;;;1.65;;
69878;SDS011;57161;43.136;24.706;2022-08-11T10:44:46;3.30;;;1.90;;
69878;SDS011;57161;43.136;24.706;2022-08-11T10:47:16;3.78;;;1.95;;
69878;SDS011;57161;43.136;24.706;2022-08-11T10:50:03;2.28;;;1.90;;
69878;SDS011;57161;43.136;24.706;2022-08-11T10:52:51;4.60;;;2.38;;
69878;SDS011;57161;43.136;24.706;2022-08-11T10:55:38;2.75;;;2.00;;
69878;SDS011;57161;43.136;24.706;2022-08-11T10:58:26;4.03;;;1.90;;
69878;SDS011;57161;43.136;24.706;2022-08-11T11:01:10;2.88;;;1.90;;
69878;SDS011;57161;43.136;24.706;2022-08-11T11:03:37;2.85;;;1.90;;
69878;SDS011;57161;43.136;24.706;2022-08-11T11:08:51;2.35;;;1.90;;
69878;SDS011;57161;43.136;24.706;2022-08-11T11:11:22;4.22;;;2.10;;
69878;SDS011;57161;43.136;24.706;2022-08-11T11:14:17;4.30;;;2.15;;
69878;SDS011;57161;43.136;24.706;2022-08-11T11:17:05;5.15;;;1.98;;
69878;SDS011;57161;43.136;24.706;2022-08-11T11:19:39;3.63;;;2.20;;
69878;SDS011;57161;43.136;24.706;2022-08-11T11:22:06;3.85;;;2.50;;
69878;SDS011;57161;43.136;24.706;2022-08-11T11:25:03;3.10;;;2.20;;
69878;SDS011;57161;43.136;24.706;2022-08-11T11:30:34;5.07;;;2.05;;
69878;SDS011;57161;43.136;24.706;2022-08-11T11:33:26;4.25;;;2.13;;
69878;SDS011;57161;43.136;24.706;2022-08-11T11:36:15;4.18;;;2.20;;
69878;SDS011;57161;43.136;24.706;2022-08-11T11:38:56;2.97;;;1.95;;
69878;SDS011;57161;43.136;24.706;2022-08-11T11:41:22;2.00;;;1.90;;
69878;SDS011;57161;43.136;24.706;2022-08-11T11:43:50;3.15;;;2.15;;
69878;SDS011;57161;43.136;24.706;2022-08-11T11:46:21;3.00;;;2.22;;
69878;SDS011;57161;43.136;24.706;2022-08-11T11:48:51;4.55;;;2.38;;
69878;SDS011;57161;43.136;24.706;2022-08-11T11:51:18;3.83;;;2.25;;
69878;SDS011;57161;43.136;24.706;2022-08-11T11:53:45;2.50;;;2.30;;
69878;SDS011;57161;43.136;24.706;2022-08-11T11:56:12;2.38;;;2.15;;
69878;SDS011;57161;43.136;24.706;2022-08-11T11:58:39;3.53;;;2.38;;
69878;SDS011;57161;43.136;24.706;2022-08-11T12:01:23;2.58;;;2.15;;
69878;SDS011;57161;43.136;24.706;2022-08-11T12:03:51;2.97;;;1.90;;
69878;SDS011;57161;43.136;24.706;2022-08-11T12:06:19;11.15;;;2.88;;
69878;SDS011;57161;43.136;24.706;2022-08-11T12:08:47;4.38;;;2.30;;
69878;SDS011;57161;43.136;24.706;2022-08-11T12:11:14;2.38;;;2.17;;
69878;SDS011;57161;43.136;24.706;2022-08-11T12:14:01;6.72;;;2.20;;
69878;SDS011;57161;43.136;24.706;2022-08-11T12:16:27;2.72;;;2.25;;
69878;SDS011;57161;43.136;24.706;2022-08-11T12:18:54;3.88;;;2.10;;
69878;SDS011;57161;43.136;24.706;2022-08-11T12:21:23;2.75;;;2.20;;
69878;SDS011;57161;43.136;24.706;2022-08-11T12:23:50;3.97;;;2.00;;
69878;SDS011;57161;43.136;24.706;2022-08-11T12:26:34;3.38;;;2.30;;
69878;SDS011;57161;43.136;24.706;2022-08-11T12:29:13;4.20;;;2.30;;
69878;SDS011;57161;43.136;24.706;2022-08-11T12:31:41;3.28;;;2.00;;
69878;SDS011;57161;43.136;24.706;2022-08-11T12:34:08;3.28;;;2.30;;
69878;SDS011;57161;43.136;24.706;2022-08-11T12:36:38;2.45;;;2.05;;
69878;SDS011;57161;43.136;24.706;2022-08-11T12:39:06;3.05;;;2.15;;
69878;SDS011;57161;43.136;24.706;2022-08-11T12:41:35;2.13;;;1.95;;
69878;SDS011;57161;43.136;24.706;2022-08-11T12:44:22;2.70;;;1.90;;
69878;SDS011;57161;43.136;24.706;2022-08-11T12:47:09;2.28;;;1.70;;
69878;SDS011;57161;43.136;24.706;2022-08-11T12:49:40;4.00;;;2.35;;
69878;SDS011;57161;43.136;24.706;2022-08-11T12:52:31;4.22;;;2.25;;
69878;SDS011;57161;43.136;24.706;2022-08-11T12:55:14;2.58;;;2.38;;
69878;SDS011;57161;43.136;24.706;2022-08-11T12:58:00;3.60;;;2.42;;
69878;SDS011;57161;43.136;24.706;2022-08-11T13:00:42;4.45;;;2.50;;
69878;SDS011;57161;43.136;24.706;2022-08-11T13:03:27;2.65;;;2.20;;
69878;SDS011;57161;43.136;24.706;2022-08-11T13:06:12;2.80;;;2.40;;
69878;SDS011;57161;43.136;24.706;2022-08-11T13:08:38;2.75;;;2.15;;
69878;SDS011;57161;43.136;24.706;2022-08-11T13:11:05;3.97;;;2.20;;
69878;SDS011;57161;43.136;24.706;2022-08-11T13:13:50;5.72;;;2.08;;
69878;SDS011;57161;43.136;24.706;2022-08-11T13:16:18;2.00;;;1.90;;
69878;SDS011;57161;43.136;24.706;2022-08-11T13:18:47;4.38;;;2.22;;
69878;SDS011;57161;43.136;24.706;2022-08-11T13:21:14;4.75;;;2.28;;
69878;SDS011;57161;43.136;24.706;2022-08-11T13:23:40;3.17;;;2.42;;
69878;SDS011;57161;43.136;24.706;2022-08-11T13:26:06;3.00;;;2.05;;
69878;SDS011;57161;43.136;24.706;2022-08-11T13:28:33;3.95;;;2.10;;
69878;SDS011;57161;43.136;24.706;2022-08-11T13:31:03;4.75;;;2.50;;
69878;SDS011;57161;43.136;24.706;2022-08-11T13:33:43;2.63;;;2.10;;
69878;SDS011;57161;43.136;24.706;2022-08-11T13:36:11;4.43;;;2.05;;
69878;SDS011;57161;43.136;24.706;2022-08-11T13:38:39;3.17;;;2.00;;
69878;SDS011;57161;43.136;24.706;2022-08-11T13:41:07;2.30;;;2.03;;
69878;SDS011;57161;43.136;24.706;2022-08-11T13:43:53;3.55;;;2.50;;
69878;SDS011;57161;43.136;24.706;2022-08-11T13:46:21;2.95;;;2.13;;
69878;SDS011;57161;43.136;24.706;2022-08-11T13:48:48;3.75;;;2.20;;
69878;SDS011;57161;43.136;24.706;2022-08-11T13:51:16;3.58;;;2.30;;
69878;SDS011;57161;43.136;24.706;2022-08-11T13:54:04;2.30;;;2.10;;
69878;SDS011;57161;43.136;24.706;2022-08-11T13:56:33;3.08;;;2.40;;
69878;SDS011;57161;43.136;24.706;2022-08-11T13:59:00;4.65;;;2.00;;
69878;SDS011;57161;43.136;24.706;2022-08-11T14:01:32;2.58;;;2.13;;
69878;SDS011;57161;43.136;24.706;2022-08-11T14:06:52;2.25;;;2.05;;
69878;SDS011;57161;43.136;24.706;2022-08-11T14:09:24;3.55;;;2.45;;
69878;SDS011;57161;43.136;24.706;2022-08-11T14:11:52;2.38;;;2.17;;
69878;SDS011;57161;43.136;24.706;2022-08-11T14:14:41;6.53;;;2.15;;
69878;SDS011;57161;43.136;24.706;2022-08-11T14:17:11;2.47;;;1.85;;
69878;SDS011;57161;43.136;24.706;2022-08-11T14:19:41;3.97;;;2.20;;
69878;SDS011;57161;43.136;24.706;2022-08-11T14:22:10;4.78;;;2.15;;
69878;SDS011;57161;43.136;24.706;2022-08-11T14:24:41;4.97;;;2.45;;
69878;SDS011;57161;43.136;24.706;2022-08-11T14:27:08;4.75;;;2.33;;
69878;SDS011;57161;43.136;24.706;2022-08-11T14:29:37;5.55;;;2.10;;
69878;SDS011;57161;43.136;24.706;2022-08-11T14:32:06;3.85;;;2.40;;
69878;SDS011;57161;43.136;24.706;2022-08-11T14:34:34;4.28;;;2.42;;
69878;SDS011;57161;43.136;24.706;2022-08-11T14:37:04;3.05;;;2.38;;
69878;SDS011;57161;43.136;24.706;2022-08-11T14:39:45;6.72;;;2.30;;
69878;SDS011;57161;43.136;24.706;2022-08-11T14:42:14;3.75;;;2.28;;
69878;SDS011;57161;43.136;24.706;2022-08-11T14:45:01;2.63;;;2.00;;
69878;SDS011;57161;43.136;24.706;2022-08-11T14:47:49;2.25;;;2.03;;
69878;SDS011;57161;43.136;24.706;2022-08-11T14:50:23;2.13;;;1.92;;
69878;SDS011;57161;43.136;24.706;2022-08-11T14:53:09;3.20;;;2.17;;
69878;SDS011;57161;43.136;24.706;2022-08-11T14:55:36;4.07;;;2.28;;
69878;SDS011;57161;43.136;24.706;2022-08-11T14:58:25;2.33;;;2.00;;
69878;SDS011;57161;43.136;24.706;2022-08-11T15:00:56;3.67;;;1.92;;
69878;SDS011;57161;43.136;24.706;2022-08-11T15:03:24;4.60;;;2.00;;
69878;SDS011;57161;43.136;24.706;2022-08-11T15:05:58;3.97;;;2.25;;
69878;SDS011;57161;43.136;24.706;2022-08-11T15:08:29;9.63;;;4.75;;
69878;SDS011;57161;43.136;24.706;2022-08-11T15:11:17;11.07;;;5.03;;
69878;SDS011;57161;43.136;24.706;2022-08-11T15:14:02;10.35;;;5.03;;
69878;SDS011;57161;43.136;24.706;2022-08-11T15:16:30;12.52;;;4.03;;
69878;SDS011;57161;43.136;24.706;2022-08-11T15:19:14;5.10;;;3.65;;
69878;SDS011;57161;43.136;24.706;2022-08-11T15:21:45;4.22;;;3.28;;
69878;SDS011;57161;43.136;24.706;2022-08-11T15:24:29;4.18;;;2.28;;
69878;SDS011;57161;43.136;24.706;2022-08-11T15:26:57;2.90;;;2.55;;
69878;SDS011;57161;43.136;24.706;2022-08-11T15:29:44;6.05;;;2.60;;
69878;SDS011;57161;43.136;24.706;2022-08-11T15:32:29;4.43;;;2.88;;
69878;SDS011;57161;43.136;24.706;2022-08-11T15:35:16;4.47;;;2.42;;
69878;SDS011;57161;43.136;24.706;2022-08-11T15:38:01;4.43;;;2.55;;
69878;SDS011;57161;43.136;24.706;2022-08-11T15:40:32;4.85;;;2.83;;
69878;SDS011;57161;43.136;24.706;2022-08-11T15:46:18;4.70;;;2.03;;
69878;SDS011;57161;43.136;24.706;2022-08-11T15:48:49;3.80;;;2.30;;
69878;SDS011;57161;43.136;24.706;2022-08-11T15:51:29;4.28;;;2.33;;
69878;SDS011;57161;43.136;24.706;2022-08-11T15:53:58;4.55;;;2.80;;
69878;SDS011;57161;43.136;24.706;2022-08-11T15:56:28;10.52;;;2.63;;
69878;SDS011;57161;43.136;24.706;2022-08-11T15:58:57;6.60;;;3.13;;
69878;SDS011;57161;43.136;24.706;2022-08-11T16:01:45;3.33;;;2.40;;
69878;SDS011;57161;43.136;24.706;2022-08-11T16:04:31;5.82;;;3.38;;
69878;SDS011;57161;43.136;24.706;2022-08-11T16:07:06;4.03;;;3.17;;
69878;SDS011;57161;43.136;24.706;2022-08-11T16:12:14;3.50;;;2.60;;
69878;SDS011;57161;43.136;24.706;2022-08-11T16:14:48;6.53;;;2.88;;
69878;SDS011;57161;43.136;24.706;2022-08-11T16:17:44;3.50;;;2.33;;
69878;SDS011;57161;43.136;24.706;2022-08-11T16:20:20;2.25;;;2.00;;
69878;SDS011;57161;43.136;24.706;2022-08-11T16:22:48;2.67;;;2.08;;
69878;SDS011;57161;43.136;24.706;2022-08-11T16:25:17;4.50;;;2.38;;
69878;SDS011;57161;43.136;24.706;2022-08-11T16:27:49;6.00;;;3.10;;
69878;SDS011;57161;43.136;24.706;2022-08-11T16:30:36;7.40;;;2.20;;
69878;SDS011;57161;43.136;24.706;2022-08-11T16:33:04;3.53;;;2.25;;
69878;SDS011;57161;43.136;24.706;2022-08-11T16:35:34;3.47;;;1.90;;
69878;SDS011;57161;43.136;24.706;2022-08-11T16:38:20;5.43;;;2.17;;
69878;SDS011;57161;43.136;24.706;2022-08-11T16:40:59;4.45;;;2.22;;
69878;SDS011;57161;43.136;24.706;2022-08-11T16:43:31;3.60;;;1.67;;
69878;SDS011;57161;43.136;24.706;2022-08-11T16:46:20;5.13;;;2.13;;
69878;SDS011;57161;43.136;24.706;2022-08-11T16:49:06;4.47;;;2.30;;
69878;SDS011;57161;43.136;24.706;2022-08-11T16:51:36;4.60;;;1.90;;
69878;SDS011;57161;43.136;24.706;2022-08-11T16:54:01;3.05;;;2.67;;
69878;SDS011;57161;43.136;24.706;2022-08-11T16:59:07;4.18;;;2.20;;
69878;SDS011;57161;43.136;24.706;2022-08-11T17:01:42;7.88;;;3.58;;
69878;SDS011;57161;43.136;24.706;2022-08-11T17:07:22;2.53;;;2.33;;
69878;SDS011;57161;43.136;24.706;2022-08-11T17:10:10;4.88;;;2.30;;
69878;SDS011;57161;43.136;24.706;2022-08-11T17:13:10;3.03;;;2.50;;
69878;SDS011;57161;43.136;24.706;2022-08-11T17:15:40;2.72;;;2.42;;
69878;SDS011;57161;43.136;24.706;2022-08-11T17:18:29;2.50;;;2.20;;
69878;SDS011;57161;43.136;24.706;2022-08-11T17:21:11;12.93;;;2.33;;
69878;SDS011;57161;43.136;24.706;2022-08-11T17:23:55;4.85;;;2.25;;
69878;SDS011;57161;43.136;24.706;2022-08-11T17:29:26;5.75;;;2.35;;
69878;SDS011;57161;43.136;24.706;2022-08-11T17:31:56;3.95;;;2.80;;
69878;SDS011;57161;43.136;24.706;2022-08-11T17:34:45;5.22;;;4.20;;
69878;SDS011;57161;43.136;24.706;2022-08-11T17:37:31;2.88;;;2.28;;
69878;SDS011;57161;43.136;24.706;2022-08-11T17:40:02;5.93;;;2.20;;
69878;SDS011;57161;43.136;24.706;2022-08-11T17:42:31;5.03;;;2.20;;
69878;SDS011;57161;43.136;24.706;2022-08-11T17:45:20;4.25;;;2.65;;
69878;SDS011;57161;43.136;24.706;2022-08-11T17:48:06;4.25;;;2.40;;
69878;SDS011;57161;43.136;24.706;2022-08-11T17:50:57;4.65;;;2.55;;
69878;SDS011;57161;43.136;24.706;2022-08-11T17:53:25;3.25;;;2.67;;
69878;SDS011;57161;43.136;24.706;2022-08-11T17:56:11;6.57;;;2.78;;
69878;SDS011;57161;43.136;24.706;2022-08-11T17:58:58;3.45;;;2.30;;
69878;SDS011;57161;43.136;24.706;2022-08-11T18:01:43;3.70;;;2.50;;
69878;SDS011;57161;43.136;24.706;2022-08-11T18:04:11;4.38;;;2.30;;
69878;SDS011;57161;43.136;24.706;2022-08-11T18:06:38;4.82;;;2.30;;
69878;SDS011;57161;43.136;24.706;2022-08-11T18:09:13;3.28;;;2.25;;
69878;SDS011;57161;43.136;24.706;2022-08-11T18:12:00;2.40;;;2.20;;
69878;SDS011;57161;43.136;24.706;2022-08-11T18:14:50;2.95;;;2.50;;
69878;SDS011;57161;43.136;24.706;2022-08-11T18:17:37;4.80;;;2.53;;
69878;SDS011;57161;43.136;24.706;2022-08-11T18:20:23;4.15;;;2.70;;
69878;SDS011;57161;43.136;24.706;2022-08-11T18:23:14;4.93;;;2.42;;
69878;SDS011;57161;43.136;24.706;2022-08-11T18:26:02;3.15;;;2.50;;
69878;SDS011;57161;43.136;24.706;2022-08-11T18:28:49;3.47;;;2.28;;
69878;SDS011;57161;43.136;24.706;2022-08-11T18:31:41;3.55;;;2.58;;
69878;SDS011;57161;43.136;24.706;2022-08-11T18:34:34;3.40;;;2.70;;
69878;SDS011;57161;43.136;24.706;2022-08-11T18:37:24;4.97;;;2.80;;
69878;SDS011;57161;43.136;24.706;2022-08-11T18:40:13;5.10;;;2.38;;
69878;SDS011;57161;43.136;24.706;2022-08-11T18:43:06;4.40;;;2.35;;
69878;SDS011;57161;43.136;24.706;2022-08-11T18:45:56;6.35;;;2.65;;
69878;SDS011;57161;43.136;24.706;2022-08-11T18:48:48;3.05;;;2.75;;
69878;SDS011;57161;43.136;24.706;2022-08-11T18:51:35;4.57;;;2.80;;
69878;SDS011;57161;43.136;24.706;2022-08-11T18:54:21;3.33;;;2.35;;
69878;SDS011;57161;43.136;24.706;2022-08-11T18:57:07;5.05;;;2.40;;
69878;SDS011;57161;43.136;24.706;2022-08-11T18:59:53;2.90;;;2.60;;
69878;SDS011;57161;43.136;24.706;2022-08-11T19:02:41;3.70;;;2.63;;
69878;SDS011;57161;43.136;24.706;2022-08-11T19:05:28;7.93;;;3.33;;
69878;SDS011;57161;43.136;24.706;2022-08-11T19:08:17;5.57;;;3.05;;
69878;SDS011;57161;43.136;24.706;2022-08-11T19:11:02;6.47;;;3.28;;
69878;SDS011;57161;43.136;24.706;2022-08-11T19:13:47;4.32;;;2.30;;
69878;SDS011;57161;43.136;24.706;2022-08-11T19:16:32;6.40;;;2.83;;
69878;SDS011;57161;43.136;24.706;2022-08-11T19:19:19;3.60;;;2.53;;